Time;durP1;ratioP1;P1;durP2;ratioP2;P2;SDS_P1;SDS_P2;PMS_P1;PMS_P2;Temp;Humidity;BMP_temperature;BMP_pressure;BME280_temperature;BME280_humidity;BME280_pressure;Samples;Min_cycle;Max_cycle;Signal;HPM_P1;HPM_P2
2022/01/14 00:00:07;;;;;;;0.20;0.20;;;;;;;;;;1847747;76;26743;-26
2022/01/14 00:02:35;;;;;;;0.20;0.20;;;;;;;;;;1850463;76;26718;-32
2022/01/14 00:05:02;;;;;;;0.20;0.20;;;;;;;;;;1850213;76;26242;-27
2022/01/14 00:07:29;;;;;;;0.25;0.25;;;;;;;;;;1849082;77;26665;-31
2022/01/14 00:09:57;;;;;;;0.20;0.20;;;;;;;;;;1848362;77;26349;-29
2022/01/14 00:12:28;;;;;;;0.20;0.20;;;;;;;;;;1847883;76;26197;-30
2022/01/14 00:15:12;;;;;;;0.20;0.20;;;;;;;;;;1847654;76;26843;-29
2022/01/14 00:17:28;;;;;;;0.30;0.30;;;;;;;;;;1844697;77;26264;-33
2022/01/14 00:19:56;;;;;;;0.30;0.30;;;;;;;;;;1847536;77;26379;-32
2022/01/14 00:22:25;;;;;;;0.28;0.28;;;;;;;;;;1848042;77;26771;-27
2022/01/14 00:33:08;;;;;;;0.20;0.20;;;;;;;;;;1846841;76;26352;-37
2022/01/14 00:35:37;;;;;;;0.10;0.10;;;;;;;;;;1849243;76;26635;-27
2022/01/14 00:38:05;;;;;;;0.25;0.25;;;;;;;;;;1847803;76;26917;-32
2022/01/14 00:40:33;;;;;;;0.30;0.30;;;;;;;;;;1846029;77;26253;-32
2022/01/14 00:43:01;;;;;;;0.20;0.20;;;;;;;;;;1848371;77;26270;-33
2022/01/14 00:45:28;;;;;;;1.00;0.30;;;;;;;;;;1848163;76;26311;-29
2022/01/14 00:47:56;;;;;;;0.20;0.20;;;;;;;;;;1848174;77;26673;-31
2022/01/14 00:50:23;;;;;;;0.30;0.30;;;;;;;;;;1848445;76;26250;-28
2022/01/14 00:52:51;;;;;;;0.10;0.10;;;;;;;;;;1849127;77;26204;-30
2022/01/14 00:55:26;;;;;;;0.20;0.17;;;;;;;;;;1847016;77;26268;-28
2022/01/14 01:00:27;;;;;;;0.30;0.30;;;;;;;;;;1819339;77;26914;-32
2022/01/14 01:02:54;;;;;;;0.45;0.20;;;;;;;;;;1828719;77;26215;-33
2022/01/14 01:05:22;;;;;;;0.20;0.20;;;;;;;;;;1817448;78;26786;-27
2022/01/14 01:08:03;;;;;;;1.27;0.23;;;;;;;;;;1817209;78;26203;-31
2022/01/14 01:10:18;;;;;;;0.53;0.30;;;;;;;;;;1812872;79;26333;-34
2022/01/14 01:12:53;;;;;;;0.25;0.25;;;;;;;;;;1817617;79;26679;-27
2022/01/14 01:15:18;;;;;;;0.10;0.10;;;;;;;;;;1816160;79;26311;-27
2022/01/14 01:17:45;;;;;;;0.28;0.20;;;;;;;;;;1818270;79;26231;-29
2022/01/14 01:20:17;;;;;;;0.37;0.37;;;;;;;;;;1817245;79;26361;-31
2022/01/14 01:22:43;;;;;;;0.20;0.20;;;;;;;;;;1816977;77;26291;-36
2022/01/14 01:25:12;;;;;;;0.28;0.28;;;;;;;;;;1817108;79;26274;-32
2022/01/14 01:27:42;;;;;;;0.10;0.10;;;;;;;;;;1820651;78;26362;-26
2022/01/14 01:30:16;;;;;;;0.40;0.20;;;;;;;;;;1817399;79;26736;-32
2022/01/14 01:32:39;;;;;;;0.17;0.17;;;;;;;;;;1813550;79;26319;-29
2022/01/14 01:35:07;;;;;;;0.30;0.30;;;;;;;;;;1818133;79;26274;-28
2022/01/14 01:37:34;;;;;;;0.23;0.23;;;;;;;;;;1817048;79;25645;-30
2022/01/14 01:40:01;;;;;;;0.30;0.30;;;;;;;;;;1818110;79;26739;-27
2022/01/14 01:42:30;;;;;;;0.15;0.15;;;;;;;;;;1818146;79;26220;-33
2022/01/14 01:44:59;;;;;;;0.20;0.20;;;;;;;;;;1817744;79;26337;-31
2022/01/14 01:47:27;;;;;;;0.10;0.10;;;;;;;;;;1818281;79;26612;-28
2022/01/14 01:49:55;;;;;;;0.20;0.20;;;;;;;;;;1817674;78;26679;-31
2022/01/14 01:52:22;;;;;;;0.20;0.20;;;;;;;;;;1817847;79;26277;-28
2022/01/14 01:54:49;;;;;;;0.30;0.30;;;;;;;;;;1817447;78;26279;-34
2022/01/14 01:57:17;;;;;;;0.20;0.20;;;;;;;;;;1817164;77;26768;-27
2022/01/14 01:59:44;;;;;;;0.20;0.20;;;;;;;;;;1825956;77;26669;-33
2022/01/14 02:02:11;;;;;;;0.30;0.30;;;;;;;;;;1832610;77;26674;-27
2022/01/14 02:04:39;;;;;;;0.23;0.23;;;;;;;;;;1816296;78;26302;-29
2022/01/14 02:07:06;;;;;;;0.23;0.23;;;;;;;;;;1816848;79;27376;-28
2022/01/14 02:09:33;;;;;;;0.17;0.17;;;;;;;;;;1818227;79;26269;-31
2022/01/14 02:12:08;;;;;;;0.10;0.10;;;;;;;;;;1818106;79;26290;-34
2022/01/14 02:22:43;;;;;;;0.20;0.20;;;;;;;;;;1815689;79;26380;-30
2022/01/14 02:25:11;;;;;;;0.53;0.23;;;;;;;;;;1818228;79;26282;-29
2022/01/14 02:27:39;;;;;;;0.20;0.20;;;;;;;;;;1818337;79;26302;-34
2022/01/14 02:30:07;;;;;;;0.28;0.23;;;;;;;;;;1817270;79;26270;-36
2022/01/14 02:32:35;;;;;;;0.20;0.20;;;;;;;;;;1810715;77;26300;-32
2022/01/14 02:35:02;;;;;;;0.70;0.20;;;;;;;;;;1813702;77;26322;-35
2022/01/14 02:37:30;;;;;;;0.28;0.28;;;;;;;;;;1826996;77;26739;-32
2022/01/14 02:39:58;;;;;;;0.30;0.30;;;;;;;;;;1817547;77;26262;-32
2022/01/14 02:42:25;;;;;;;0.40;0.40;;;;;;;;;;1824238;77;26223;-26
2022/01/14 02:45:00;;;;;;;0.20;0.20;;;;;;;;;;1817015;79;26266;-31
2022/01/14 02:47:21;;;;;;;0.10;0.10;;;;;;;;;;1815831;79;26398;-27
2022/01/14 02:49:48;;;;;;;0.20;0.20;;;;;;;;;;1823109;77;26240;-28
2022/01/14 02:52:16;;;;;;;0.30;0.30;;;;;;;;;;1822293;77;26734;-33
2022/01/14 02:55:02;;;;;;;0.20;0.20;;;;;;;;;;1822186;77;26310;-28
2022/01/14 02:57:14;;;;;;;0.30;0.30;;;;;;;;;;1830387;77;27241;-27
2022/01/14 02:59:41;;;;;;;0.17;0.17;;;;;;;;;;1850166;76;26287;-38
2022/01/14 03:02:10;;;;;;;0.28;0.28;;;;;;;;;;1852573;76;26373;-35
2022/01/14 03:04:39;;;;;;;0.20;0.20;;;;;;;;;;1858714;76;26260;-27
2022/01/14 03:07:09;;;;;;;0.20;0.20;;;;;;;;;;1869292;76;26263;-28
2022/01/14 03:09:39;;;;;;;0.20;0.20;;;;;;;;;;1863260;76;26680;-27
2022/01/14 03:12:07;;;;;;;0.10;0.10;;;;;;;;;;1858904;76;26274;-32
2022/01/14 03:14:35;;;;;;;0.23;0.23;;;;;;;;;;1857437;77;25654;-27
2022/01/14 03:17:02;;;;;;;0.25;0.10;;;;;;;;;;1857773;77;26791;-29
2022/01/14 03:19:31;;;;;;;0.20;0.20;;;;;;;;;;1858604;77;26287;-33
2022/01/14 03:22:19;;;;;;;0.10;0.10;;;;;;;;;;1850980;76;26307;-29
2022/01/14 03:27:06;;;;;;;0.10;0.10;;;;;;;;;;1858000;77;26312;-28
2022/01/14 03:29:33;;;;;;;0.10;0.10;;;;;;;;;;1858108;76;26744;-29
2022/01/14 03:32:03;;;;;;;0.17;0.17;;;;;;;;;;1859250;76;26788;-36
2022/01/14 03:34:31;;;;;;;0.20;0.20;;;;;;;;;;1857482;76;26299;-34
2022/01/14 03:36:58;;;;;;;0.00;0.00;;;;;;;;;;1857632;77;26344;-35
2022/01/14 03:39:25;;;;;;;0.00;0.00;;;;;;;;;;1877235;76;26274;-36
2022/01/14 03:41:53;;;;;;;0.10;0.10;;;;;;;;;;1858717;77;28245;-35
2022/01/14 03:44:20;;;;;;;0.17;0.17;;;;;;;;;;1856745;76;26705;-29
2022/01/14 03:46:47;;;;;;;0.20;0.20;;;;;;;;;;1857205;77;25604;-32
2022/01/14 03:49:15;;;;;;;0.10;0.10;;;;;;;;;;1857047;76;26805;-30
2022/01/14 03:51:42;;;;;;;0.10;0.10;;;;;;;;;;1854459;76;26353;-31
2022/01/14 03:54:10;;;;;;;0.20;0.20;;;;;;;;;;1858509;76;26231;-26
2022/01/14 03:56:37;;;;;;;0.57;0.20;;;;;;;;;;1882994;76;26206;-27
2022/01/14 03:59:04;;;;;;;0.00;0.00;;;;;;;;;;1864483;76;26307;-28
2022/01/14 04:01:32;;;;;;;0.10;0.10;;;;;;;;;;1859411;77;26262;-29
2022/01/14 04:03:59;;;;;;;0.10;0.10;;;;;;;;;;1857924;77;26219;-28
2022/01/14 04:06:28;;;;;;;0.00;0.00;;;;;;;;;;1857851;76;26255;-31
2022/01/14 04:08:55;;;;;;;0.10;0.10;;;;;;;;;;1875351;76;26791;-29
2022/01/14 04:11:23;;;;;;;0.10;0.10;;;;;;;;;;1857592;76;26280;-32
2022/01/14 04:13:54;;;;;;;0.00;0.00;;;;;;;;;;1856661;76;26431;-31
2022/01/14 04:16:20;;;;;;;0.10;0.10;;;;;;;;;;1858086;77;26351;-33
2022/01/14 04:18:52;;;;;;;0.00;0.00;;;;;;;;;;1857693;76;26288;-32
2022/01/14 04:21:19;;;;;;;0.00;0.00;;;;;;;;;;1859490;76;26281;-27
2022/01/14 04:23:46;;;;;;;0.10;0.10;;;;;;;;;;1856352;77;26221;-28
2022/01/14 04:26:15;;;;;;;0.20;0.20;;;;;;;;;;1870702;76;26992;-32
2022/01/14 04:28:42;;;;;;;0.13;0.13;;;;;;;;;;1857401;76;26693;-30
2022/01/14 04:31:10;;;;;;;0.00;0.00;;;;;;;;;;1856291;76;26791;-27
2022/01/14 04:33:37;;;;;;;0.03;0.03;;;;;;;;;;1863127;76;26337;-28
2022/01/14 04:36:05;;;;;;;0.10;0.10;;;;;;;;;;1854013;77;26349;-32
2022/01/14 04:38:33;;;;;;;0.00;0.00;;;;;;;;;;1857224;76;26209;-28
2022/01/14 04:41:01;;;;;;;0.13;0.13;;;;;;;;;;1850653;76;26330;-35
2022/01/14 04:43:29;;;;;;;0.00;0.00;;;;;;;;;;1859306;76;26349;-31
2022/01/14 04:48:33;;;;;;;0.17;0.10;;;;;;;;;;1856200;76;26315;-28
2022/01/14 04:51:01;;;;;;;0.10;0.10;;;;;;;;;;1861783;76;26212;-35
2022/01/14 04:53:29;;;;;;;0.10;0.10;;;;;;;;;;1860421;76;26303;-34
2022/01/14 04:55:56;;;;;;;0.00;0.00;;;;;;;;;;1858433;76;26738;-30
2022/01/14 04:58:25;;;;;;;1.35;0.20;;;;;;;;;;1858310;76;26300;-32
2022/01/14 05:00:52;;;;;;;0.00;0.00;;;;;;;;;;1857537;76;26747;-27
2022/01/14 05:03:20;;;;;;;0.00;0.00;;;;;;;;;;1854236;76;26378;-29
2022/01/14 05:05:50;;;;;;;0.20;0.20;;;;;;;;;;1849321;76;26269;-30
2022/01/14 05:08:24;;;;;;;0.00;0.00;;;;;;;;;;1856262;76;26810;-27
2022/01/14 05:13:23;;;;;;;0.20;0.10;;;;;;;;;;1857649;76;26741;-32
2022/01/14 05:15:50;;;;;;;0.10;0.10;;;;;;;;;;1852092;77;26359;-27
2022/01/14 05:18:17;;;;;;;1.65;0.30;;;;;;;;;;1834901;77;26767;-27
2022/01/14 05:20:45;;;;;;;0.28;0.10;;;;;;;;;;1856826;76;26284;-27
2022/01/14 05:23:12;;;;;;;1.12;0.10;;;;;;;;;;1851559;76;26299;-29
2022/01/14 05:25:39;;;;;;;0.10;0.10;;;;;;;;;;1852778;76;26353;-33
2022/01/14 05:28:07;;;;;;;0.20;0.20;;;;;;;;;;1847762;77;26212;-29
2022/01/14 05:30:34;;;;;;;0.00;0.00;;;;;;;;;;1856680;77;26213;-27
2022/01/14 05:33:02;;;;;;;0.80;0.05;;;;;;;;;;1854026;76;26298;-35
2022/01/14 05:35:30;;;;;;;0.10;0.10;;;;;;;;;;1856458;77;26241;-33
2022/01/14 05:37:57;;;;;;;0.10;0.10;;;;;;;;;;1858639;76;26714;-31
2022/01/14 05:40:28;;;;;;;0.03;0.03;;;;;;;;;;1873111;76;26240;-27
2022/01/14 05:42:56;;;;;;;0.00;0.00;;;;;;;;;;1851313;76;26249;-36
2022/01/14 05:45:24;;;;;;;0.20;0.20;;;;;;;;;;1868163;76;26312;-27
2022/01/14 05:47:51;;;;;;;0.13;0.13;;;;;;;;;;1865632;76;26712;-28
2022/01/14 05:50:20;;;;;;;0.10;0.10;;;;;;;;;;1852071;77;26272;-27
2022/01/14 05:52:47;;;;;;;1.37;0.10;;;;;;;;;;1860377;76;26216;-31
2022/01/14 05:55:15;;;;;;;0.20;0.20;;;;;;;;;;1873092;76;26208;-31
2022/01/14 05:57:43;;;;;;;1.30;0.00;;;;;;;;;;1876280;76;26273;-35
2022/01/14 06:00:12;;;;;;;0.35;0.20;;;;;;;;;;1867720;76;26270;-34
2022/01/14 06:02:39;;;;;;;0.80;0.20;;;;;;;;;;1840866;77;26339;-30
2022/01/14 06:05:07;;;;;;;1.65;0.10;;;;;;;;;;1862785;76;26256;-29
2022/01/14 06:07:34;;;;;;;0.15;0.15;;;;;;;;;;1870444;76;26640;-31
2022/01/14 06:10:02;;;;;;;0.17;0.10;;;;;;;;;;1843913;76;26774;-31
2022/01/14 06:12:29;;;;;;;0.80;0.20;;;;;;;;;;1854682;76;26334;-29
2022/01/14 06:14:56;;;;;;;1.42;0.10;;;;;;;;;;1851933;76;26292;-31
2022/01/14 06:17:23;;;;;;;0.23;0.10;;;;;;;;;;1858050;77;26268;-35
2022/01/14 06:19:51;;;;;;;1.12;0.13;;;;;;;;;;1855703;76;26395;-28
2022/01/14 06:22:18;;;;;;;0.10;0.10;;;;;;;;;;1850746;76;26248;-32
2022/01/14 06:24:45;;;;;;;0.08;0.08;;;;;;;;;;1856183;76;26714;-27
2022/01/14 06:27:13;;;;;;;1.98;0.30;;;;;;;;;;1857817;76;26709;-29
2022/01/14 06:29:40;;;;;;;0.33;0.10;;;;;;;;;;1857430;76;26275;-32
2022/01/14 06:32:08;;;;;;;0.23;0.20;;;;;;;;;;1864441;76;26816;-32
2022/01/14 06:34:36;;;;;;;0.10;0.10;;;;;;;;;;1857530;76;26234;-29
2022/01/14 06:37:03;;;;;;;0.20;0.20;;;;;;;;;;1857142;76;26622;-30
2022/01/14 06:39:30;;;;;;;0.13;0.13;;;;;;;;;;1849565;76;26357;-28
2022/01/14 06:41:58;;;;;;;0.13;0.13;;;;;;;;;;1857387;76;26306;-30
2022/01/14 06:44:25;;;;;;;0.10;0.10;;;;;;;;;;1858136;76;26299;-27
2022/01/14 06:46:52;;;;;;;0.10;0.10;;;;;;;;;;1859973;76;26287;-30
2022/01/14 06:49:20;;;;;;;0.25;0.10;;;;;;;;;;1857870;76;26674;-32
2022/01/14 06:51:47;;;;;;;0.65;0.30;;;;;;;;;;1857036;76;26221;-29
2022/01/14 06:54:14;;;;;;;0.00;0.00;;;;;;;;;;1857456;76;26656;-30
2022/01/14 06:56:42;;;;;;;0.35;0.35;;;;;;;;;;1856482;76;26378;-27
2022/01/14 06:59:09;;;;;;;0.70;0.20;;;;;;;;;;1856112;76;26314;-38
2022/01/14 07:01:36;;;;;;;0.55;0.10;;;;;;;;;;1860688;76;26301;-36
2022/01/14 07:04:04;;;;;;;2.35;0.20;;;;;;;;;;1863482;76;26227;-32
2022/01/14 07:06:31;;;;;;;0.47;0.10;;;;;;;;;;1855906;76;26591;-32
2022/01/14 07:08:58;;;;;;;0.15;0.15;;;;;;;;;;1865178;77;26278;-53
2022/01/14 07:11:30;;;;;;;0.20;0.20;;;;;;;;;;1857335;76;26255;-38
2022/01/14 07:13:55;;;;;;;0.30;0.30;;;;;;;;;;1863329;75;26852;-27
2022/01/14 07:16:22;;;;;;;0.10;0.10;;;;;;;;;;1864500;77;26896;-27
2022/01/14 07:18:50;;;;;;;0.30;0.30;;;;;;;;;;1864324;76;26942;-33
2022/01/14 07:21:17;;;;;;;0.23;0.23;;;;;;;;;;1865655;76;26231;-27
2022/01/14 07:23:45;;;;;;;0.20;0.20;;;;;;;;;;1863753;77;26271;-27
2022/01/14 07:26:12;;;;;;;0.13;0.10;;;;;;;;;;1855013;76;26711;-28
2022/01/14 07:28:39;;;;;;;0.45;0.20;;;;;;;;;;1863312;75;26263;-32
2022/01/14 07:31:06;;;;;;;0.10;0.10;;;;;;;;;;1864135;76;26680;-34
2022/01/14 07:33:34;;;;;;;0.20;0.20;;;;;;;;;;1863548;76;26822;-27
2022/01/14 07:36:02;;;;;;;1.25;0.20;;;;;;;;;;1863944;76;26274;-37
2022/01/14 07:38:29;;;;;;;1.52;0.20;;;;;;;;;;1863472;76;26268;-34
2022/01/14 07:40:56;;;;;;;0.30;0.20;;;;;;;;;;1856689;76;26247;-27
2022/01/14 07:43:23;;;;;;;0.20;0.20;;;;;;;;;;1864220;77;26278;-30
2022/01/14 07:45:51;;;;;;;0.80;0.30;;;;;;;;;;1864140;76;26772;-30
2022/01/14 07:48:18;;;;;;;0.10;0.10;;;;;;;;;;1864410;77;26665;-27
2022/01/14 07:50:45;;;;;;;0.10;0.10;;;;;;;;;;1864160;76;26782;-30
2022/01/14 07:53:13;;;;;;;0.15;0.15;;;;;;;;;;1857757;76;26276;-27
2022/01/14 07:55:41;;;;;;;1.25;0.30;;;;;;;;;;1864309;77;26271;-31
2022/01/14 07:58:08;;;;;;;0.20;0.20;;;;;;;;;;1864275;76;27063;-29
2022/01/14 08:00:36;;;;;;;0.10;0.10;;;;;;;;;;1844403;76;26686;-30
2022/01/14 08:03:04;;;;;;;0.17;0.17;;;;;;;;;;1849150;76;26224;-36
2022/01/14 08:05:32;;;;;;;0.47;0.20;;;;;;;;;;1823282;77;26770;-32
2022/01/14 08:08:04;;;;;;;0.20;0.20;;;;;;;;;;1827518;76;26294;-38
2022/01/14 08:10:28;;;;;;;0.20;0.20;;;;;;;;;;1853602;76;26264;-27
2022/01/14 08:12:55;;;;;;;0.53;0.10;;;;;;;;;;1848870;77;26304;-28
2022/01/14 08:15:23;;;;;;;0.30;0.30;;;;;;;;;;1848890;77;26280;-27
2022/01/14 08:17:51;;;;;;;0.20;0.20;;;;;;;;;;1849094;77;26295;-30
2022/01/14 08:20:18;;;;;;;0.17;0.17;;;;;;;;;;1848554;76;26290;-27
2022/01/14 08:22:45;;;;;;;0.20;0.20;;;;;;;;;;1848850;76;26342;-34
2022/01/14 08:25:13;;;;;;;0.20;0.20;;;;;;;;;;1848844;76;26294;-27
2022/01/14 08:27:40;;;;;;;0.10;0.10;;;;;;;;;;1837743;76;26321;-30
2022/01/14 08:30:08;;;;;;;0.13;0.13;;;;;;;;;;1849054;77;26327;-29
2022/01/14 08:32:36;;;;;;;0.20;0.20;;;;;;;;;;1848833;76;26236;-27
2022/01/14 08:35:04;;;;;;;0.10;0.10;;;;;;;;;;1848789;76;26292;-32
2022/01/14 08:37:31;;;;;;;0.10;0.10;;;;;;;;;;1851750;76;27041;-27
2022/01/14 08:39:58;;;;;;;0.20;0.20;;;;;;;;;;1861268;77;27199;-30
2022/01/14 08:42:25;;;;;;;0.10;0.10;;;;;;;;;;1845440;76;26767;-29
2022/01/14 08:44:53;;;;;;;0.10;0.10;;;;;;;;;;1844620;77;26331;-36
2022/01/14 08:47:20;;;;;;;0.20;0.20;;;;;;;;;;1844600;76;26727;-34
2022/01/14 08:49:47;;;;;;;0.20;0.20;;;;;;;;;;1842894;77;26681;-31
2022/01/14 08:52:15;;;;;;;0.20;0.20;;;;;;;;;;1847110;76;26271;-29
2022/01/14 08:54:42;;;;;;;0.25;0.25;;;;;;;;;;1848529;76;26365;-34
2022/01/14 08:57:10;;;;;;;0.20;0.20;;;;;;;;;;1847407;77;26333;-32
2022/01/14 08:59:37;;;;;;;0.28;0.17;;;;;;;;;;1846665;76;26226;-30
2022/01/14 09:02:05;;;;;;;0.30;0.20;;;;;;;;;;1858477;76;26828;-29
2022/01/14 09:04:33;;;;;;;0.47;0.20;;;;;;;;;;1856546;77;26384;-31
2022/01/14 09:07:02;;;;;;;0.10;0.10;;;;;;;;;;1856710;76;26257;-36
2022/01/14 09:09:29;;;;;;;0.25;0.25;;;;;;;;;;1849435;77;26282;-27
2022/01/14 09:11:56;;;;;;;0.30;0.20;;;;;;;;;;1856140;76;26251;-29
2022/01/14 09:14:25;;;;;;;0.10;0.10;;;;;;;;;;1857499;76;27011;-27
2022/01/14 09:16:52;;;;;;;0.10;0.10;;;;;;;;;;1858056;76;26343;-28
2022/01/14 09:19:21;;;;;;;0.10;0.10;;;;;;;;;;1857136;76;26310;-29
2022/01/14 09:21:48;;;;;;;0.20;0.20;;;;;;;;;;1857797;76;26292;-28
2022/01/14 09:26:46;;;;;;;0.20;0.20;;;;;;;;;;1898953;74;27765;-28
2022/01/14 09:29:13;;;;;;;0.25;0.25;;;;;;;;;;1868467;76;26223;-38
2022/01/14 09:31:41;;;;;;;0.10;0.10;;;;;;;;;;1861107;76;26250;-26
2022/01/14 09:34:08;;;;;;;0.10;0.10;;;;;;;;;;1862565;76;26312;-28
2022/01/14 09:36:35;;;;;;;0.20;0.20;;;;;;;;;;1895580;75;26249;-30
2022/01/14 09:39:04;;;;;;;0.28;0.28;;;;;;;;;;1897110;75;26257;-32
2022/01/14 09:41:31;;;;;;;0.33;0.20;;;;;;;;;;1878137;76;26316;-29
2022/01/14 09:43:58;;;;;;;0.20;0.20;;;;;;;;;;1863452;76;26290;-26
2022/01/14 09:46:25;;;;;;;0.20;0.20;;;;;;;;;;1877529;76;26750;-26
2022/01/14 09:48:53;;;;;;;0.20;0.20;;;;;;;;;;1880890;76;26679;-28
2022/01/14 09:51:21;;;;;;;0.13;0.13;;;;;;;;;;1874650;76;26669;-28
2022/01/14 09:53:49;;;;;;;0.20;0.20;;;;;;;;;;1875656;76;26282;-25
2022/01/14 09:56:17;;;;;;;0.45;0.30;;;;;;;;;;1876204;76;26318;-28
2022/01/14 09:58:49;;;;;;;0.30;0.30;;;;;;;;;;1869130;76;26271;-36
2022/01/14 10:01:21;;;;;;;0.20;0.20;;;;;;;;;;1859524;75;26892;-29
2022/01/14 10:03:53;;;;;;;0.20;0.20;;;;;;;;;;1862192;76;26241;-26
2022/01/14 10:06:40;;;;;;;0.20;0.20;;;;;;;;;;1879925;76;26293;-31
2022/01/14 10:09:09;;;;;;;0.20;0.20;;;;;;;;;;1858908;75;27568;-34
2022/01/14 10:11:37;;;;;;;0.10;0.10;;;;;;;;;;1880054;76;26255;-28
2022/01/14 10:14:09;;;;;;;0.60;0.20;;;;;;;;;;1858444;76;26680;-27
2022/01/14 10:16:40;;;;;;;0.10;0.10;;;;;;;;;;1844147;76;26281;-34
2022/01/14 10:19:06;;;;;;;0.28;0.28;;;;;;;;;;1847373;76;26277;-31
2022/01/14 10:21:34;;;;;;;0.10;0.10;;;;;;;;;;1834058;76;26261;-32
2022/01/14 10:24:01;;;;;;;0.20;0.20;;;;;;;;;;1845775;77;26324;-36
2022/01/14 10:26:30;;;;;;;0.10;0.10;;;;;;;;;;1832692;77;26567;-31
2022/01/14 10:29:01;;;;;;;0.15;0.15;;;;;;;;;;1846608;76;26764;-30
2022/01/14 10:31:33;;;;;;;0.20;0.20;;;;;;;;;;1838149;77;26289;-37
2022/01/14 10:34:08;;;;;;;0.10;0.10;;;;;;;;;;1836762;76;26348;-29
2022/01/14 10:36:35;;;;;;;0.25;0.25;;;;;;;;;;1849267;76;26654;-31
2022/01/14 10:39:04;;;;;;;0.20;0.20;;;;;;;;;;1830956;77;26807;-35
2022/01/14 10:41:34;;;;;;;0.30;0.30;;;;;;;;;;1815535;76;26288;-29
2022/01/14 10:44:01;;;;;;;0.30;0.30;;;;;;;;;;1834833;77;26762;-29
2022/01/14 10:46:28;;;;;;;0.20;0.20;;;;;;;;;;1835167;77;26292;-30
2022/01/14 10:48:56;;;;;;;0.20;0.20;;;;;;;;;;1849504;76;27393;-26
2022/01/14 10:51:23;;;;;;;0.57;0.40;;;;;;;;;;1851117;76;26697;-31
2022/01/14 10:53:52;;;;;;;0.40;0.30;;;;;;;;;;1850199;76;26246;-27
2022/01/14 10:56:20;;;;;;;0.30;0.30;;;;;;;;;;1844579;76;26260;-27
2022/01/14 10:58:49;;;;;;;0.90;0.33;;;;;;;;;;1857210;76;26336;-35
2022/01/14 11:01:20;;;;;;;1.57;0.30;;;;;;;;;;1844841;76;26311;-29
2022/01/14 11:03:56;;;;;;;0.20;0.20;;;;;;;;;;1851048;76;26382;-28
2022/01/14 11:06:24;;;;;;;0.20;0.20;;;;;;;;;;1862378;76;26732;-34
2022/01/14 11:08:56;;;;;;;0.30;0.30;;;;;;;;;;1867492;76;26247;-31
2022/01/14 11:11:24;;;;;;;0.30;0.30;;;;;;;;;;1856694;76;26303;-36
2022/01/14 11:13:51;;;;;;;0.35;0.35;;;;;;;;;;1858474;76;26296;-30
2022/01/14 11:16:19;;;;;;;1.75;0.20;;;;;;;;;;1864709;76;26224;-27
2022/01/14 11:18:47;;;;;;;0.20;0.20;;;;;;;;;;1839931;76;26244;-28
2022/01/14 11:24:03;;;;;;;0.20;0.20;;;;;;;;;;1840976;76;26261;-32
2022/01/14 11:26:31;;;;;;;0.20;0.20;;;;;;;;;;1839183;76;26859;-30
2022/01/14 11:29:00;;;;;;;0.70;0.30;;;;;;;;;;1878522;76;26780;-28
2022/01/14 11:31:29;;;;;;;1.05;0.30;;;;;;;;;;1874097;76;26750;-27
2022/01/14 11:33:57;;;;;;;0.20;0.20;;;;;;;;;;1851957;76;26244;-29
2022/01/14 11:36:24;;;;;;;0.90;0.55;;;;;;;;;;1852984;76;26713;-32
2022/01/14 11:38:52;;;;;;;0.20;0.20;;;;;;;;;;1864895;76;26254;-30
2022/01/14 11:41:22;;;;;;;0.20;0.20;;;;;;;;;;1852049;76;26870;-38
2022/01/14 11:43:52;;;;;;;0.30;0.30;;;;;;;;;;1857951;76;26236;-32
2022/01/14 11:46:33;;;;;;;0.33;0.25;;;;;;;;;;1866992;76;26306;-28
2022/01/14 11:49:01;;;;;;;0.20;0.20;;;;;;;;;;1853041;76;26209;-28
2022/01/14 11:51:28;;;;;;;0.20;0.20;;;;;;;;;;1835281;77;25852;-29
2022/01/14 11:53:57;;;;;;;0.28;0.28;;;;;;;;;;1857909;77;26828;-28
2022/01/14 11:56:35;;;;;;;0.30;0.30;;;;;;;;;;1846810;76;26692;-33
2022/01/14 11:59:22;;;;;;;0.55;0.33;;;;;;;;;;1850347;76;26282;-28
2022/01/14 12:01:51;;;;;;;0.95;0.30;;;;;;;;;;1854181;76;26264;-34
2022/01/14 12:04:18;;;;;;;0.20;0.20;;;;;;;;;;1862824;76;26551;-27
2022/01/14 12:06:47;;;;;;;0.30;0.30;;;;;;;;;;1858922;76;26726;-30
2022/01/14 12:09:14;;;;;;;0.25;0.20;;;;;;;;;;1854034;76;26798;-29
2022/01/14 12:11:41;;;;;;;0.33;0.30;;;;;;;;;;1859198;76;26701;-28
2022/01/14 12:14:11;;;;;;;0.30;0.30;;;;;;;;;;1856086;76;26753;-36
2022/01/14 12:16:48;;;;;;;0.30;0.30;;;;;;;;;;1869784;76;26333;-27
2022/01/14 12:19:16;;;;;;;0.20;0.20;;;;;;;;;;1847413;76;26275;-28
2022/01/14 12:21:49;;;;;;;1.30;0.25;;;;;;;;;;1844573;76;26268;-31
2022/01/14 12:24:18;;;;;;;0.20;0.20;;;;;;;;;;1852967;76;26264;-31
2022/01/14 12:27:07;;;;;;;0.20;0.17;;;;;;;;;;1860480;75;26300;-30
2022/01/14 12:29:32;;;;;;;0.47;0.30;;;;;;;;;;1863012;76;26381;-27
2022/01/14 12:32:04;;;;;;;0.20;0.20;;;;;;;;;;1844566;75;26194;-30
2022/01/14 12:34:33;;;;;;;0.30;0.30;;;;;;;;;;1866045;75;26344;-27
2022/01/14 12:37:00;;;;;;;0.15;0.15;;;;;;;;;;1895524;75;26251;-28
2022/01/14 12:39:28;;;;;;;0.37;0.37;;;;;;;;;;1884199;75;26251;-29
2022/01/14 12:41:56;;;;;;;0.25;0.25;;;;;;;;;;1882171;75;26816;-33
2022/01/14 12:44:24;;;;;;;0.25;0.25;;;;;;;;;;1869063;75;26323;-27
2022/01/14 12:47:09;;;;;;;0.10;0.10;;;;;;;;;;1871989;75;26340;-28
2022/01/14 12:49:40;;;;;;;0.50;0.35;;;;;;;;;;1876348;75;26377;-33
2022/01/14 12:52:09;;;;;;;0.35;0.35;;;;;;;;;;1879600;75;26226;-32
2022/01/14 12:54:38;;;;;;;0.30;0.30;;;;;;;;;;1883521;75;26321;-32
2022/01/14 12:57:06;;;;;;;0.40;0.40;;;;;;;;;;1858613;76;26318;-26
2022/01/14 12:59:43;;;;;;;0.28;0.28;;;;;;;;;;1863499;75;26236;-26
2022/01/14 13:02:18;;;;;;;0.30;0.30;;;;;;;;;;1868806;75;26226;-29
2022/01/14 13:04:45;;;;;;;1.32;0.28;;;;;;;;;;1864288;75;26257;-32
2022/01/14 13:07:13;;;;;;;0.30;0.30;;;;;;;;;;1896512;75;26250;-29
2022/01/14 13:09:43;;;;;;;0.75;0.10;;;;;;;;;;1885815;75;26331;-30
2022/01/14 13:12:15;;;;;;;0.37;0.37;;;;;;;;;;1863132;75;26362;-33
2022/01/14 13:14:50;;;;;;;0.20;0.20;;;;;;;;;;1863893;75;26794;-30
2022/01/14 13:17:18;;;;;;;0.30;0.30;;;;;;;;;;1868975;75;26728;-30
2022/01/14 13:19:47;;;;;;;0.35;0.20;;;;;;;;;;1859275;75;26491;-30
2022/01/14 13:22:16;;;;;;;0.13;0.13;;;;;;;;;;1858738;75;26732;-32
2022/01/14 13:24:45;;;;;;;0.15;0.15;;;;;;;;;;1859040;75;26279;-28
2022/01/14 13:27:32;;;;;;;0.30;0.30;;;;;;;;;;1859799;75;26289;-30
2022/01/14 13:30:03;;;;;;;0.15;0.15;;;;;;;;;;1871692;76;26324;-30
2022/01/14 13:32:32;;;;;;;0.20;0.20;;;;;;;;;;1848715;77;26358;-31
2022/01/14 13:35:09;;;;;;;0.20;0.20;;;;;;;;;;1871453;76;26235;-31
2022/01/14 13:37:37;;;;;;;0.23;0.20;;;;;;;;;;1843033;76;26336;-28
2022/01/14 13:40:14;;;;;;;0.33;0.33;;;;;;;;;;1848737;76;26202;-30
2022/01/14 13:43:00;;;;;;;0.20;0.20;;;;;;;;;;1845176;76;26705;-30
2022/01/14 13:45:28;;;;;;;0.10;0.10;;;;;;;;;;1868549;76;26377;-33
2022/01/14 13:48:09;;;;;;;0.20;0.20;;;;;;;;;;1861514;76;26769;-28
2022/01/14 13:50:41;;;;;;;0.20;0.20;;;;;;;;;;1862902;76;26295;-31
2022/01/14 13:53:09;;;;;;;2.35;0.30;;;;;;;;;;1836932;76;26291;-36
2022/01/14 13:55:38;;;;;;;0.13;0.13;;;;;;;;;;1836361;76;26304;-29
2022/01/14 13:58:07;;;;;;;0.20;0.20;;;;;;;;;;1841489;76;26331;-29
2022/01/14 14:00:35;;;;;;;0.23;0.23;;;;;;;;;;1838290;76;26320;-28
2022/01/14 14:03:04;;;;;;;0.23;0.23;;;;;;;;;;1867340;76;26271;-29
2022/01/14 14:05:41;;;;;;;0.10;0.08;;;;;;;;;;1837540;76;26335;-35
2022/01/14 14:08:19;;;;;;;0.20;0.20;;;;;;;;;;1849313;76;26336;-31
2022/01/14 14:12:03;;;;;;;0.20;0.20;;;;;;;;;;1844492;76;26279;-32
2022/01/14 14:13:28;;;;;;;1.40;0.30;;;;;;;;;;1866465;76;25353;-31
2022/01/14 14:15:48;;;;;;;0.10;0.10;;;;;;;;;;1836645;76;27558;-29
2022/01/14 14:18:16;;;;;;;0.20;0.20;;;;;;;;;;1849730;76;26269;-31
2022/01/14 14:20:43;;;;;;;0.30;0.30;;;;;;;;;;1843488;76;26203;-26
2022/01/14 14:23:21;;;;;;;0.17;0.17;;;;;;;;;;1838167;76;26199;-33
2022/01/14 14:25:48;;;;;;;0.03;0.03;;;;;;;;;;1871575;76;26854;-26
2022/01/14 14:28:16;;;;;;;1.30;0.20;;;;;;;;;;1864086;76;26259;-26
2022/01/14 14:30:51;;;;;;;1.00;0.20;;;;;;;;;;1854464;76;26175;-31
2022/01/14 14:33:17;;;;;;;0.25;0.25;;;;;;;;;;1847434;76;26351;-30
2022/01/14 14:35:45;;;;;;;0.70;0.30;;;;;;;;;;1845328;76;26638;-26
2022/01/14 14:38:19;;;;;;;0.20;0.20;;;;;;;;;;1837599;76;26278;-33
2022/01/14 14:40:50;;;;;;;0.28;0.20;;;;;;;;;;1847110;76;26831;-27
2022/01/14 14:43:16;;;;;;;0.85;0.20;;;;;;;;;;1856647;75;26313;-32
2022/01/14 14:45:44;;;;;;;0.10;0.10;;;;;;;;;;1842445;76;26275;-32
2022/01/14 14:48:12;;;;;;;0.20;0.20;;;;;;;;;;1846691;76;26786;-31
2022/01/14 14:50:39;;;;;;;0.15;0.15;;;;;;;;;;1865561;76;26260;-26
2022/01/14 14:53:06;;;;;;;0.85;0.20;;;;;;;;;;1870729;76;26194;-32
2022/01/14 14:55:34;;;;;;;0.20;0.20;;;;;;;;;;1834170;76;26262;-27
2022/01/14 14:58:03;;;;;;;1.80;0.30;;;;;;;;;;1844535;76;26234;-39
2022/01/14 15:00:30;;;;;;;0.13;0.13;;;;;;;;;;1851418;76;26787;-27
2022/01/14 15:02:59;;;;;;;0.35;0.23;;;;;;;;;;1840381;76;26319;-31
2022/01/14 15:05:27;;;;;;;0.20;0.20;;;;;;;;;;1846365;76;26215;-26
2022/01/14 15:07:54;;;;;;;0.47;0.15;;;;;;;;;;1851211;76;26281;-33
2022/01/14 15:10:23;;;;;;;1.10;0.10;;;;;;;;;;1847638;76;27435;-28
2022/01/14 15:12:50;;;;;;;0.42;0.17;;;;;;;;;;1851964;76;26309;-29
2022/01/14 15:15:31;;;;;;;1.35;0.20;;;;;;;;;;1852645;76;26323;-32
2022/01/14 15:20:33;;;;;;;0.20;0.20;;;;;;;;;;1851740;76;27037;-29
2022/01/14 15:23:01;;;;;;;2.80;0.20;;;;;;;;;;1849042;76;26312;-30
2022/01/14 15:25:28;;;;;;;0.88;0.10;;;;;;;;;;1846386;76;26319;-26